sensor_id;sensor_type;location;lat;lon;timestamp;temperature;humidity
57072;DHT22;42956;51.366;11.298;2024-03-23T11:50:32;25.60;65.80
57072;DHT22;42956;51.366;11.298;2024-03-23T11:53:08;23.60;67.90
57072;DHT22;42956;51.366;11.298;2024-03-23T11:55:39;23.20;68.10
57072;DHT22;42956;51.366;11.298;2024-03-23T11:58:05;23.10;69.40
57072;DHT22;42956;51.366;11.298;2024-03-23T12:00:31;22.90;69.10
57072;DHT22;42956;51.366;11.298;2024-03-23T12:03:00;23.00;70.20
57072;DHT22;42956;51.366;11.298;2024-03-23T12:05:26;23.20;69.70
57072;DHT22;42956;51.366;11.298;2024-03-23T12:07:53;23.20;68.10
57072;DHT22;42956;51.366;11.298;2024-03-23T12:10:19;23.50;67.60
57072;DHT22;42956;51.366;11.298;2024-03-23T12:12:45;23.50;66.90
57072;DHT22;42956;51.366;11.298;2024-03-23T12:15:11;23.80;67.70
57072;DHT22;42956;51.366;11.298;2024-03-23T12:21:53;23.60;65.90
57072;DHT22;42956;51.366;11.298;2024-03-23T12:24:20;23.20;65.80
57072;DHT22;42956;51.366;11.298;2024-03-23T12:26:46;23.00;66.50
57072;DHT22;42956;51.366;11.298;2024-03-23T12:29:15;23.00;65.60
57072;DHT22;42956;51.366;11.298;2024-03-23T12:31:41;23.10;66.00
57072;DHT22;42956;51.366;11.298;2024-03-23T12:34:07;23.20;65.00
57072;DHT22;42956;51.366;11.298;2024-03-23T13:00:59;26.50;56.80
57072;DHT22;42956;51.366;11.298;2024-03-23T13:03:24;25.60;63.00
57072;DHT22;42956;51.366;11.298;2024-03-23T14:12:41;26.30;56.90
57072;DHT22;42956;51.366;11.298;2024-03-23T14:24:22;24.70;59.50
57072;DHT22;42956;51.366;11.298;2024-03-23T14:33:04;20.20;55.80
57072;DHT22;42956;51.366;11.298;2024-03-23T14:35:31;16.40;65.10
57072;DHT22;42956;51.366;11.298;2024-03-23T14:37:58;14.20;72.70
57072;DHT22;42956;51.366;11.298;2024-03-23T14:40:24;12.80;79.90
57072;DHT22;42956;51.366;11.298;2024-03-23T14:42:53;11.90;85.70
57072;DHT22;42956;51.366;11.298;2024-03-23T14:45:20;11.20;88.50
57072;DHT22;42956;51.366;11.298;2024-03-23T14:47:46;10.50;91.60
57072;DHT22;42956;51.366;11.298;2024-03-23T14:50:14;10.10;92.50
57072;DHT22;42956;51.366;11.298;2024-03-23T14:52:43;9.90;94.10
57072;DHT22;42956;51.366;11.298;2024-03-23T14:55:10;9.70;95.20
57072;DHT22;42956;51.366;11.298;2024-03-23T14:57:36;9.40;95.80
57072;DHT22;42956;51.366;11.298;2024-03-23T15:00:03;9.20;96.70
57072;DHT22;42956;51.366;11.298;2024-03-23T15:02:31;9.10;97.60
57072;DHT22;42956;51.366;11.298;2024-03-23T15:04:58;8.90;98.10
57072;DHT22;42956;51.366;11.298;2024-03-23T15:07:25;8.90;99.20
57072;DHT22;42956;51.366;11.298;2024-03-23T15:09:52;8.90;99.90
57072;DHT22;42956;51.366;11.298;2024-03-23T15:12:19;8.80;99.90
57072;DHT22;42956;51.366;11.298;2024-03-23T15:14:46;8.80;99.90
57072;DHT22;42956;51.366;11.298;2024-03-23T15:17:13;8.70;99.90
57072;DHT22;42956;51.366;11.298;2024-03-23T15:19:39;8.60;99.90
57072;DHT22;42956;51.366;11.298;2024-03-23T15:22:06;8.60;99.90
57072;DHT22;42956;51.366;11.298;2024-03-23T15:24:33;8.60;99.90
57072;DHT22;42956;51.366;11.298;2024-03-23T15:27:01;8.50;99.90
57072;DHT22;42956;51.366;11.298;2024-03-23T15:29:28;8.30;99.90
57072;DHT22;42956;51.366;11.298;2024-03-23T15:31:54;8.30;99.90
57072;DHT22;42956;51.366;11.298;2024-03-23T15:34:20;8.20;99.90
57072;DHT22;42956;51.366;11.298;2024-03-23T15:36:49;8.20;99.90
57072;DHT22;42956;51.366;11.298;2024-03-23T15:39:16;8.20;99.90
57072;DHT22;42956;51.366;11.298;2024-03-23T15:41:45;8.10;99.90
57072;DHT22;42956;51.366;11.298;2024-03-23T15:44:11;8.10;99.90
57072;DHT22;42956;51.366;11.298;2024-03-23T15:46:37;8.10;99.90
57072;DHT22;42956;51.366;11.298;2024-03-23T15:49:03;8.00;99.90
57072;DHT22;42956;51.366;11.298;2024-03-23T15:51:30;7.90;99.90
57072;DHT22;42956;51.366;11.298;2024-03-23T15:53:59;7.80;99.90
57072;DHT22;42956;51.366;11.298;2024-03-23T15:56:25;7.20;99.90
57072;DHT22;42956;51.366;11.298;2024-03-23T15:58:52;6.30;99.90
57072;DHT22;42956;51.366;11.298;2024-03-23T16:01:18;5.50;99.90
57072;DHT22;42956;51.366;11.298;2024-03-23T16:03:44;5.10;99.90
57072;DHT22;42956;51.366;11.298;2024-03-23T16:06:10;5.00;99.90
57072;DHT22;42956;51.366;11.298;2024-03-23T16:08:37;5.00;99.90
57072;DHT22;42956;51.366;11.298;2024-03-23T16:12:28;5.00;99.90
57072;DHT22;42956;51.366;11.298;2024-03-23T16:14:54;5.10;99.90
57072;DHT22;42956;51.366;11.298;2024-03-23T16:17:20;5.20;99.90
57072;DHT22;42956;51.366;11.298;2024-03-23T16:19:46;5.30;99.90
57072;DHT22;42956;51.366;11.298;2024-03-23T16:22:12;5.40;99.90
57072;DHT22;42956;51.366;11.298;2024-03-23T16:24:40;5.50;99.90
57072;DHT22;42956;51.366;11.298;2024-03-23T16:27:06;5.50;99.90
57072;DHT22;42956;51.366;11.298;2024-03-23T16:29:34;5.50;99.90
57072;DHT22;42956;51.366;11.298;2024-03-23T16:32:00;5.50;99.90
57072;DHT22;42956;51.366;11.298;2024-03-23T16:34:26;5.50;99.90
57072;DHT22;42956;51.366;11.298;2024-03-23T16:36:52;5.50;99.90
57072;DHT22;42956;51.366;11.298;2024-03-23T16:39:18;5.50;99.90
57072;DHT22;42956;51.366;11.298;2024-03-23T16:41:44;5.40;99.90
57072;DHT22;42956;51.366;11.298;2024-03-23T16:44:10;5.40;99.90
57072;DHT22;42956;51.366;11.298;2024-03-23T16:46:37;5.40;99.90
57072;DHT22;42956;51.366;11.298;2024-03-23T16:49:04;5.30;99.90
57072;DHT22;42956;51.366;11.298;2024-03-23T16:51:30;5.30;99.90
57072;DHT22;42956;51.366;11.298;2024-03-23T16:53:56;5.20;99.90
57072;DHT22;42956;51.366;11.298;2024-03-23T16:56:25;5.20;99.90
57072;DHT22;42956;51.366;11.298;2024-03-23T16:58:51;5.20;99.90
57072;DHT22;42956;51.366;11.298;2024-03-23T17:01:17;5.20;99.90
57072;DHT22;42956;51.366;11.298;2024-03-23T17:03:48;5.20;99.90
57072;DHT22;42956;51.366;11.298;2024-03-23T17:06:14;5.20;99.90
57072;DHT22;42956;51.366;11.298;2024-03-23T17:08:42;5.10;99.90
57072;DHT22;42956;51.366;11.298;2024-03-23T17:11:09;5.10;99.90
57072;DHT22;42956;51.366;11.298;2024-03-23T17:13:36;5.10;99.90
57072;DHT22;42956;51.366;11.298;2024-03-23T17:16:02;5.00;99.90
57072;DHT22;42956;51.366;11.298;2024-03-23T17:18:28;5.00;99.90
57072;DHT22;42956;51.366;11.298;2024-03-23T17:20:56;5.00;99.90
57072;DHT22;42956;51.366;11.298;2024-03-23T17:23:24;4.90;99.90
57072;DHT22;42956;51.366;11.298;2024-03-23T17:25:50;4.80;99.90
57072;DHT22;42956;51.366;11.298;2024-03-23T17:28:16;4.80;99.90
57072;DHT22;42956;51.366;11.298;2024-03-23T17:30:43;4.70;99.90
57072;DHT22;42956;51.366;11.298;2024-03-23T17:33:09;4.70;99.90
57072;DHT22;42956;51.366;11.298;2024-03-23T17:35:35;4.70;99.90
57072;DHT22;42956;51.366;11.298;2024-03-23T17:38:02;4.70;99.90
57072;DHT22;42956;51.366;11.298;2024-03-23T17:40:30;4.70;99.90
57072;DHT22;42956;51.366;11.298;2024-03-23T17:42:56;4.70;99.90
57072;DHT22;42956;51.366;11.298;2024-03-23T17:45:24;4.70;99.90
57072;DHT22;42956;51.366;11.298;2024-03-23T17:47:51;4.70;99.90
57072;DHT22;42956;51.366;11.298;2024-03-23T17:50:17;4.60;99.90
57072;DHT22;42956;51.366;11.298;2024-03-23T17:52:44;4.60;99.90
57072;DHT22;42956;51.366;11.298;2024-03-23T17:55:12;4.50;99.90
57072;DHT22;42956;51.366;11.298;2024-03-23T17:57:38;4.50;99.90
57072;DHT22;42956;51.366;11.298;2024-03-23T18:00:05;4.50;99.90
57072;DHT22;42956;51.366;11.298;2024-03-23T18:02:37;4.50;99.90
57072;DHT22;42956;51.366;11.298;2024-03-23T18:05:03;4.50;99.90
57072;DHT22;42956;51.366;11.298;2024-03-23T18:07:30;4.50;99.90
57072;DHT22;42956;51.366;11.298;2024-03-23T18:09:56;4.50;99.90
57072;DHT22;42956;51.366;11.298;2024-03-23T18:12:23;4.50;99.90
57072;DHT22;42956;51.366;11.298;2024-03-23T18:14:50;4.50;99.90
57072;DHT22;42956;51.366;11.298;2024-03-23T18:17:16;4.50;99.90
57072;DHT22;42956;51.366;11.298;2024-03-23T18:19:42;4.60;99.90
57072;DHT22;42956;51.366;11.298;2024-03-23T18:22:08;4.60;99.90
57072;DHT22;42956;51.366;11.298;2024-03-23T18:24:34;4.60;99.90
57072;DHT22;42956;51.366;11.298;2024-03-23T18:27:00;4.50;99.90
57072;DHT22;42956;51.366;11.298;2024-03-23T18:29:27;4.50;99.90
57072;DHT22;42956;51.366;11.298;2024-03-23T18:31:53;4.50;99.90
57072;DHT22;42956;51.366;11.298;2024-03-23T18:34:19;4.50;99.90
57072;DHT22;42956;51.366;11.298;2024-03-23T18:36:46;4.50;99.90
57072;DHT22;42956;51.366;11.298;2024-03-23T18:39:12;4.40;99.90
57072;DHT22;42956;51.366;11.298;2024-03-23T18:41:38;4.40;99.90
57072;DHT22;42956;51.366;11.298;2024-03-23T18:44:05;4.40;99.90
57072;DHT22;42956;51.366;11.298;2024-03-23T18:46:32;4.40;99.90
57072;DHT22;42956;51.366;11.298;2024-03-23T18:48:59;4.40;99.90
57072;DHT22;42956;51.366;11.298;2024-03-23T18:51:26;4.40;99.90
57072;DHT22;42956;51.366;11.298;2024-03-23T18:53:54;4.40;99.90
57072;DHT22;42956;51.366;11.298;2024-03-23T18:56:25;4.40;99.90
57072;DHT22;42956;51.366;11.298;2024-03-23T18:58:52;4.40;99.90
57072;DHT22;42956;51.366;11.298;2024-03-23T19:01:18;4.50;99.90
57072;DHT22;42956;51.366;11.298;2024-03-23T19:03:47;4.50;99.90
57072;DHT22;42956;51.366;11.298;2024-03-23T19:06:13;4.50;99.90
57072;DHT22;42956;51.366;11.298;2024-03-23T19:08:39;4.50;99.90
57072;DHT22;42956;51.366;11.298;2024-03-23T19:11:07;4.50;99.90
57072;DHT22;42956;51.366;11.298;2024-03-23T19:13:34;4.50;99.90
57072;DHT22;42956;51.366;11.298;2024-03-23T19:16:01;4.60;99.90
57072;DHT22;42956;51.366;11.298;2024-03-23T19:18:27;4.60;99.90
57072;DHT22;42956;51.366;11.298;2024-03-23T19:20:55;4.60;99.90
57072;DHT22;42956;51.366;11.298;2024-03-23T19:23:25;4.50;99.90
57072;DHT22;42956;51.366;11.298;2024-03-23T19:25:52;4.50;99.90
57072;DHT22;42956;51.366;11.298;2024-03-23T19:28:18;4.50;99.90
57072;DHT22;42956;51.366;11.298;2024-03-23T19:30:45;4.50;99.90
57072;DHT22;42956;51.366;11.298;2024-03-23T19:33:11;4.50;99.90
57072;DHT22;42956;51.366;11.298;2024-03-23T19:35:37;4.40;99.90
57072;DHT22;42956;51.366;11.298;2024-03-23T19:38:06;4.30;99.90
57072;DHT22;42956;51.366;11.298;2024-03-23T19:40:33;4.20;99.90
57072;DHT22;42956;51.366;11.298;2024-03-23T19:43:02;4.10;99.90
57072;DHT22;42956;51.366;11.298;2024-03-23T19:45:29;4.10;99.90
57072;DHT22;42956;51.366;11.298;2024-03-23T19:47:57;4.00;99.90
57072;DHT22;42956;51.366;11.298;2024-03-23T19:50:25;3.90;99.90
57072;DHT22;42956;51.366;11.298;2024-03-23T19:52:51;3.80;99.90
57072;DHT22;42956;51.366;11.298;2024-03-23T19:55:20;3.80;99.90
57072;DHT22;42956;51.366;11.298;2024-03-23T19:57:47;3.70;99.90
57072;DHT22;42956;51.366;11.298;2024-03-23T20:00:14;3.60;99.90
57072;DHT22;42956;51.366;11.298;2024-03-23T20:02:40;3.60;99.90
57072;DHT22;42956;51.366;11.298;2024-03-23T20:05:07;3.60;99.90
57072;DHT22;42956;51.366;11.298;2024-03-23T20:07:33;3.60;99.90
57072;DHT22;42956;51.366;11.298;2024-03-23T20:09:59;3.60;99.90
57072;DHT22;42956;51.366;11.298;2024-03-23T20:12:26;3.50;99.90
57072;DHT22;42956;51.366;11.298;2024-03-23T20:14:52;3.60;99.90
57072;DHT22;42956;51.366;11.298;2024-03-23T20:17:18;3.60;99.90
57072;DHT22;42956;51.366;11.298;2024-03-23T20:19:45;3.70;99.90
57072;DHT22;42956;51.366;11.298;2024-03-23T20:22:11;3.70;99.90
57072;DHT22;42956;51.366;11.298;2024-03-23T20:24:37;3.70;99.90
57072;DHT22;42956;51.366;11.298;2024-03-23T20:27:03;3.80;99.90
57072;DHT22;42956;51.366;11.298;2024-03-23T20:29:32;3.80;99.90
57072;DHT22;42956;51.366;11.298;2024-03-23T20:31:58;3.90;99.90
57072;DHT22;42956;51.366;11.298;2024-03-23T20:34:24;3.90;99.90
57072;DHT22;42956;51.366;11.298;2024-03-23T20:36:50;4.00;99.90
57072;DHT22;42956;51.366;11.298;2024-03-23T20:39:16;4.00;99.90
57072;DHT22;42956;51.366;11.298;2024-03-23T20:41:43;4.00;99.90
57072;DHT22;42956;51.366;11.298;2024-03-23T20:44:09;4.00;99.90
57072;DHT22;42956;51.366;11.298;2024-03-23T20:46:37;4.00;99.90
57072;DHT22;42956;51.366;11.298;2024-03-23T20:49:03;4.00;99.90
57072;DHT22;42956;51.366;11.298;2024-03-23T20:51:29;4.00;99.90
57072;DHT22;42956;51.366;11.298;2024-03-23T20:53:55;4.00;99.90
57072;DHT22;42956;51.366;11.298;2024-03-23T20:56:22;3.90;99.90
57072;DHT22;42956;51.366;11.298;2024-03-23T20:58:47;3.90;99.90
57072;DHT22;42956;51.366;11.298;2024-03-23T21:01:14;3.90;99.90
57072;DHT22;42956;51.366;11.298;2024-03-23T21:03:42;3.80;99.90
57072;DHT22;42956;51.366;11.298;2024-03-23T21:06:08;3.80;99.90
57072;DHT22;42956;51.366;11.298;2024-03-23T21:08:34;3.80;99.90
57072;DHT22;42956;51.366;11.298;2024-03-23T21:11:01;3.80;99.90
57072;DHT22;42956;51.366;11.298;2024-03-23T21:13:31;3.70;99.90
57072;DHT22;42956;51.366;11.298;2024-03-23T21:15:58;3.70;99.90
57072;DHT22;42956;51.366;11.298;2024-03-23T21:18:27;3.70;99.90
57072;DHT22;42956;51.366;11.298;2024-03-23T21:20:55;3.70;99.90
57072;DHT22;42956;51.366;11.298;2024-03-23T21:23:23;3.70;99.90
57072;DHT22;42956;51.366;11.298;2024-03-23T21:25:56;3.70;99.90
57072;DHT22;42956;51.366;11.298;2024-03-23T21:28:22;3.70;99.90
57072;DHT22;42956;51.366;11.298;2024-03-23T21:30:49;3.60;99.90
57072;DHT22;42956;51.366;11.298;2024-03-23T21:33:15;3.60;99.90
57072;DHT22;42956;51.366;11.298;2024-03-23T21:35:41;3.60;99.90
57072;DHT22;42956;51.366;11.298;2024-03-23T21:38:10;3.50;99.90
57072;DHT22;42956;51.366;11.298;2024-03-23T21:40:36;3.50;99.90
57072;DHT22;42956;51.366;11.298;2024-03-23T21:43:03;3.50;99.90
57072;DHT22;42956;51.366;11.298;2024-03-23T21:45:30;3.50;99.90
57072;DHT22;42956;51.366;11.298;2024-03-23T21:47:56;3.50;99.90
57072;DHT22;42956;51.366;11.298;2024-03-23T21:50:22;3.40;99.90
57072;DHT22;42956;51.366;11.298;2024-03-23T21:52:48;3.40;99.90
57072;DHT22;42956;51.366;11.298;2024-03-23T21:55:16;3.40;99.90
57072;DHT22;42956;51.366;11.298;2024-03-23T21:57:46;3.40;99.90
57072;DHT22;42956;51.366;11.298;2024-03-23T22:00:15;3.40;99.90
57072;DHT22;42956;51.366;11.298;2024-03-23T22:02:42;3.40;99.90
57072;DHT22;42956;51.366;11.298;2024-03-23T22:05:09;3.30;99.90
57072;DHT22;42956;51.366;11.298;2024-03-23T22:07:36;3.30;99.90
57072;DHT22;42956;51.366;11.298;2024-03-23T22:10:02;3.30;99.90
57072;DHT22;42956;51.366;11.298;2024-03-23T22:12:29;3.20;99.90
57072;DHT22;42956;51.366;11.298;2024-03-23T22:14:55;3.20;99.90
57072;DHT22;42956;51.366;11.298;2024-03-23T22:17:22;3.20;99.90
57072;DHT22;42956;51.366;11.298;2024-03-23T22:19:49;3.10;99.90
57072;DHT22;42956;51.366;11.298;2024-03-23T22:22:15;3.10;99.90
57072;DHT22;42956;51.366;11.298;2024-03-23T22:24:43;3.10;99.90
57072;DHT22;42956;51.366;11.298;2024-03-23T22:27:08;3.10;99.90
57072;DHT22;42956;51.366;11.298;2024-03-23T22:29:36;3.10;99.90
57072;DHT22;42956;51.366;11.298;2024-03-23T22:32:03;3.00;99.90
57072;DHT22;42956;51.366;11.298;2024-03-23T22:34:29;3.00;99.90
57072;DHT22;42956;51.366;11.298;2024-03-23T22:36:55;3.00;99.90
57072;DHT22;42956;51.366;11.298;2024-03-23T22:39:21;3.00;99.90
57072;DHT22;42956;51.366;11.298;2024-03-23T22:41:47;3.00;99.90
57072;DHT22;42956;51.366;11.298;2024-03-23T22:44:13;3.00;99.90
57072;DHT22;42956;51.366;11.298;2024-03-23T22:46:42;3.00;99.90
57072;DHT22;42956;51.366;11.298;2024-03-23T22:49:09;3.00;99.90
57072;DHT22;42956;51.366;11.298;2024-03-23T22:51:36;3.00;99.90
57072;DHT22;42956;51.366;11.298;2024-03-23T22:54:02;3.00;99.90
57072;DHT22;42956;51.366;11.298;2024-03-23T22:56:28;3.00;99.90
57072;DHT22;42956;51.366;11.298;2024-03-23T22:58:54;2.90;99.90
57072;DHT22;42956;51.366;11.298;2024-03-23T23:01:20;3.00;99.90
57072;DHT22;42956;51.366;11.298;2024-03-23T23:03:48;3.00;99.90
57072;DHT22;42956;51.366;11.298;2024-03-23T23:06:14;3.00;99.90
57072;DHT22;42956;51.366;11.298;2024-03-23T23:08:40;2.90;99.90
57072;DHT22;42956;51.366;11.298;2024-03-23T23:11:06;2.90;99.90
57072;DHT22;42956;51.366;11.298;2024-03-23T23:13:32;2.90;99.90
57072;DHT22;42956;51.366;11.298;2024-03-23T23:15:59;2.90;99.90
57072;DHT22;42956;51.366;11.298;2024-03-23T23:18:25;2.90;99.90
57072;DHT22;42956;51.366;11.298;2024-03-23T23:20:53;2.90;99.90
57072;DHT22;42956;51.366;11.298;2024-03-23T23:23:19;2.80;99.90
57072;DHT22;42956;51.366;11.298;2024-03-23T23:25:46;2.90;99.90
57072;DHT22;42956;51.366;11.298;2024-03-23T23:28:12;2.80;99.90
57072;DHT22;42956;51.366;11.298;2024-03-23T23:30:38;2.80;99.90
57072;DHT22;42956;51.366;11.298;2024-03-23T23:33:04;2.80;99.90
57072;DHT22;42956;51.366;11.298;2024-03-23T23:35:30;2.80;99.90
57072;DHT22;42956;51.366;11.298;2024-03-23T23:37:57;2.80;99.90
57072;DHT22;42956;51.366;11.298;2024-03-23T23:40:24;2.80;99.90
57072;DHT22;42956;51.366;11.298;2024-03-23T23:42:50;2.80;99.90
57072;DHT22;42956;51.366;11.298;2024-03-23T23:45:16;2.70;99.90
57072;DHT22;42956;51.366;11.298;2024-03-23T23:47:42;2.70;99.90
57072;DHT22;42956;51.366;11.298;2024-03-23T23:50:09;2.70;99.90
57072;DHT22;42956;51.366;11.298;2024-03-23T23:52:35;2.70;99.90
57072;DHT22;42956;51.366;11.298;2024-03-23T23:55:04;2.70;99.90
57072;DHT22;42956;51.366;11.298;2024-03-23T23:57:30;2.70;99.90
57072;DHT22;42956;51.366;11.298;2024-03-23T23:59:56;2.60;99.90
